Terminal Aerodrome Forecast
Issued by NWS

Home | Current Version | Previous Version | Text Only | Print | Product List | Glossary On
Versions: 1 2 3 4 5 6 7 8 9 10 11 12 13 14 15 16 17 18 19 20 21 22 23 24 25 26
328
FTUS41 KOKX 221331 AAA
TAFSWF
TAF AMD
KSWF 221331Z 2214/2318 23008KT P6SM BKN250
     FM221800 23013G20KT P6SM SCT050 BKN250
     FM222000 23015G25KT P6SM SCT050 BKN250
     FM222300 23012G18KT 6SM SHRA VCTS FEW020 BKN050CB PROB30
      2302/2306 5SM TSRA BKN025 BKN050CB
     FM230600 27008KT P6SM VCSH SCT025 BKN040
     FM231300 31012KT P6SM SCT040 SCT100 BKN200=

USA.gov is the U.S. government's official web portal to all federal, state and local government web resources and services.